Dryden, Canada
Current Conditions -  °F | °C
As of 6:00 AM on Friday 28 Nov 2014 (Local Time) from CYHD Reporting Station
Overcast Overcast  
Wind Chill: -4°   Ceiling: 17000
Heat Index: -4°   Visibility: 9mi
Dew Point: -8°   Wind: 3mph
Humidity: 85%   Direction: 140°SE
Pressure: 30.05"   Gusts: NA
Location:  49.78°N, 92.84°W
Report Text: CYHD 281200Z AUTO 14003KT 9SM BKN170 OVC200 M20/M22 A3005 RMK SLP224
Loading
Personal Weather Stations






























Interactive Weather Map New forecast layout! Learn more

10-Day Weather Forecast

Advertisements
Track Severe Weather on mobile